MDT,Max TemperatureF,Mean TemperatureF,Min TemperatureF,Max Dew PointF,MeanDew PointF,Min DewpointF,Max Humidity, Mean Humidity, Min Humidity, Max Sea Level PressureIn, Mean Sea Level PressureIn, Min Sea Level PressureIn, Max VisibilityMiles, Mean VisibilityMiles, Min VisibilityMiles, Max Wind SpeedMPH, Mean Wind SpeedMPH, Max Gust SpeedMPH,PrecipitationIn, CloudCover, Events, WindDirDegrees
2011-9-1,91,72,54,50,44,36,80,45,15,30.03,29.88,29.80,10,10,10,23,5,29,0.00,1,,249
2011-9-2,90,73,57,47,42,34,65,40,14,30.15,29.92,29.82,10,10,10,26,6,33,0.00,1,Rain-Thunderstorm,337
2011-9-3,89,68,50,42,33,18,64,33,8,30.00,29.94,29.87,10,10,10,20,5,24,0.00,0,,297
2011-9-4,88,66,45,36,25,15,49,24,8,30.10,30.00,29.92,10,10,10,9,3,,0.00,0,,42
2011-9-5,89,68,48,40,31,20,40,23,12,30.10,29.97,29.88,10,10,10,32,4,39,0.00,1,,270
2011-9-6,72,64,57,57,54,42,94,82,35,30.29,30.14,29.95,10,8,1,14,4,,0.43,7,Rain,309
2011-9-7,75,65,55,54,49,44,87,62,33,30.32,30.18,30.12,10,10,10,8,2,,0.00,4,Thunderstorm,219
2011-9-8,81,64,48,48,45,38,89,58,23,30.27,30.16,30.03,10,10,10,16,3,22,0.00,1,Rain-Thunderstorm,38
2011-9-9,81,63,46,49,42,34,86,52,19,30.17,30.05,29.90,10,10,7,21,4,25,0.02,2,Rain-Thunderstorm,176
2011-9-10,80,62,46,46,41,29,86,55,17,30.18,30.07,29.98,10,10,10,10,3,26,0.00,0,,101
2011-9-11,77,62,46,46,43,41,83,55,29,30.23,30.15,30.05,10,10,10,22,5,30,0.00,2,Thunderstorm,131
2011-9-12,75,62,48,46,45,43,86,60,34,30.27,30.18,30.10,10,10,10,13,4,,0.00,3,,136
2011-9-13,80,64,50,46,41,35,80,54,22,30.19,30.11,30.00,10,10,10,10,2,,0.00,2,,186
2011-9-14,73,60,46,52,43,37,93,61,29,30.06,29.99,29.90,10,10,9,18,4,31,0.03,3,Rain,184
2011-9-15,66,58,50,54,50,45,100,86,54,30.14,30.03,29.91,10,10,5,8,2,,0.07,6,Rain,95
2011-9-16,73,59,46,49,46,42,93,68,34,30.06,29.96,29.85,10,10,9,16,3,31,0.07,5,Rain-Thunderstorm,99
2011-9-17,64,56,46,52,49,43,97,84,50,30.17,30.07,29.96,10,10,4,21,5,31,0.20,7,Rain-Thunderstorm,247
2011-9-18,73,56,39,45,41,34,93,65,24,30.31,30.22,30.14,10,10,10,8,3,,0.00,2,,214
2011-9-19,79,60,43,42,39,29,82,50,17,30.26,30.13,30.01,10,10,10,17,5,25,0.00,1,,234
2011-9-20,80,60,42,41,39,34,85,51,20,30.11,30.03,29.94,10,10,5,20,4,26,0.02,2,Rain,154
2011-9-21,77,58,42,40,34,26,79,46,16,30.13,30.06,29.99,10,10,10,14,3,23,0.00,0,,12
2011-9-22,80,58,39,34,32,29,73,43,17,30.26,30.16,30.09,10,10,10,9,2,,0.00,0,,113
2011-9-23,82,60,39,37,31,26,76,37,13,30.34,30.20,30.07,10,10,2,7,2,,0.00,0,,157
2011-9-24,84,62,41,38,30,21,67,37,10,30.17,30.05,29.90,10,10,10,12,2,,0.00,0,,109
2011-9-25,84,64,43,36,28,21,58,34,10,30.03,29.92,29.81,10,10,10,14,3,,0.00,0,,188
2011-9-26,84,62,41,34,28,24,57,32,11,30.05,29.97,29.91,10,10,10,12,3,,0.00,0,,32
2011-9-27,84,64,43,35,29,22,60,32,11,30.18,30.07,29.97,10,10,10,8,3,,0.00,0,,210
2011-9-28,84,64,44,34,31,28,58,34,13,30.19,30.08,29.99,10,10,10,8,2,17,0.00,0,,175
2011-9-29,88,65,44,35,32,27,66,35,12,30.18,30.09,29.98,10,10,10,14,4,22,0.00,0,,21
2011-9-30,84,64,46,38,34,28,61,36,15,30.21,30.09,30.00,10,10,10,13,2,,0.00,0,,180